BNI5V LGIR-LATI
Flight info
| Callsign | BNI5V |
|---|---|
| Flight time | 1h 38m |
| Altitude | 38000 |
| Route | EPALO M749 DIRMI UL613 YNN/N0375F240 L604 DIMIS DCT ELBAK |
| Aircraft | C525/L-SDFGRWY/SB1 |
Departure
| Time | 2026-05-09 03:29 |
|---|---|
| Airport | Heraklion International Nikos Kazantzakis Airport (LGIR) |
Arrival
| Time | 2026-05-09 05:08 |
|---|---|
| Airport | Tirana International Airport Mother Teresa (LATI) |
| Time | Latitude | Longitude | Altitude | Speed | Heading |
|---|---|---|---|---|---|
| 2026-05-09 03:18 | 35.33667 | 25.18846 | 119 ft | 0 kts | 150° |
| 2026-05-09 03:24 | 35.33648 | 25.18838 | 119 ft | 5 kts | 202° |
| 2026-05-09 03:25 | 35.33628 | 25.18802 | 119 ft | 7 kts | 247° |
| 2026-05-09 03:25 | 35.33591 | 25.18736 | 119 ft | 12 kts | 260° |
| 2026-05-09 03:25 | 35.33620 | 25.18621 | 119 ft | 16 kts | 302° |
| 2026-05-09 03:25 | 35.33691 | 25.18498 | 119 ft | 19 kts | 306° |
| 2026-05-09 03:26 | 35.33775 | 25.18357 | 119 ft | 22 kts | 308° |
| 2026-05-09 03:26 | 35.33872 | 25.18198 | 119 ft | 24 kts | 307° |
| 2026-05-09 03:26 | 35.33981 | 25.18020 | 119 ft | 26 kts | 306° |
| 2026-05-09 03:26 | 35.34087 | 25.17840 | 119 ft | 24 kts | 302° |
| 2026-05-09 03:27 | 35.34187 | 25.17677 | 119 ft | 23 kts | 306° |
| 2026-05-09 03:27 | 35.34279 | 25.17521 | 119 ft | 21 kts | 307° |
| 2026-05-09 03:27 | 35.34361 | 25.17393 | 119 ft | 14 kts | 322° |
| 2026-05-09 03:27 | 35.34380 | 25.17359 | 119 ft | 4 kts | 120° |
| 2026-05-09 03:28 | 35.34352 | 25.17400 | 119 ft | 7 kts | 124° |
| 2026-05-09 03:28 | 35.34301 | 25.17482 | 119 ft | 24 kts | 128° |
| 2026-05-09 03:28 | 35.34073 | 25.17860 | 119 ft | 85 kts | 128° |
| 2026-05-09 03:28 | 35.33619 | 25.18620 | 171 ft | 128 kts | 128° |
| 2026-05-09 03:29 | 35.33111 | 25.19536 | 632 ft | 139 kts | 111° |
| 2026-05-09 03:29 | 35.33219 | 25.20720 | 1127 ft | 146 kts | 68° |
| 2026-05-09 03:29 | 35.33752 | 25.21821 | 1496 ft | 153 kts | 58° |
| 2026-05-09 03:29 | 35.34479 | 25.22760 | 1904 ft | 155 kts | 33° |
| 2026-05-09 03:30 | 35.35425 | 25.23399 | 2296 ft | 161 kts | 23° |
| 2026-05-09 03:30 | 35.36499 | 25.23915 | 2757 ft | 169 kts | 12° |
| 2026-05-09 03:30 | 35.37610 | 25.24312 | 3348 ft | 169 kts | 19° |
| 2026-05-09 03:30 | 35.38752 | 25.24647 | 3860 ft | 169 kts | 356° |
| 2026-05-09 03:31 | 35.39898 | 25.24426 | 4371 ft | 170 kts | 343° |
| 2026-05-09 03:31 | 35.41043 | 25.24044 | 4927 ft | 170 kts | 338° |
| 2026-05-09 03:31 | 35.42153 | 25.23563 | 5376 ft | 176 kts | 335° |
| 2026-05-09 03:31 | 35.43309 | 25.23037 | 5879 ft | 180 kts | 334° |
| 2026-05-09 03:32 | 35.44491 | 25.22447 | 6318 ft | 188 kts | 332° |
| 2026-05-09 03:32 | 35.45711 | 25.21798 | 6795 ft | 192 kts | 332° |
| 2026-05-09 03:32 | 35.46951 | 25.21140 | 7247 ft | 198 kts | 332° |
| 2026-05-09 03:32 | 35.48250 | 25.20465 | 7742 ft | 208 kts | 332° |
| 2026-05-09 03:33 | 35.49614 | 25.19774 | 8255 ft | 216 kts | 333° |
| 2026-05-09 03:33 | 35.50991 | 25.19039 | 8909 ft | 216 kts | 331° |
| 2026-05-09 03:33 | 35.52293 | 25.18312 | 9807 ft | 201 kts | 330° |
| 2026-05-09 03:33 | 35.53573 | 25.17598 | 10434 ft | 201 kts | 330° |
| 2026-05-09 03:34 | 35.54823 | 25.16899 | 11070 ft | 199 kts | 329° |
| 2026-05-09 03:34 | 35.56071 | 25.16195 | 11613 ft | 200 kts | 329° |
| 2026-05-09 03:34 | 35.57332 | 25.15480 | 12180 ft | 200 kts | 329° |
| 2026-05-09 03:34 | 35.58588 | 25.14761 | 12672 ft | 201 kts | 328° |
| 2026-05-09 03:35 | 35.59848 | 25.14036 | 13164 ft | 202 kts | 328° |
| 2026-05-09 03:35 | 35.61119 | 25.13300 | 13721 ft | 202 kts | 328° |
| 2026-05-09 03:35 | 35.62388 | 25.12559 | 14201 ft | 203 kts | 328° |
| 2026-05-09 03:35 | 35.63663 | 25.11811 | 14761 ft | 200 kts | 327° |
| 2026-05-09 03:36 | 35.64801 | 25.10862 | 15176 ft | 199 kts | 316° |
| 2026-05-09 03:36 | 35.65760 | 25.09681 | 15692 ft | 194 kts | 308° |
| 2026-05-09 03:36 | 35.66621 | 25.08381 | 16116 ft | 196 kts | 307° |
| 2026-05-09 03:36 | 35.67501 | 25.07065 | 16427 ft | 203 kts | 307° |
| 2026-05-09 03:37 | 35.68429 | 25.05679 | 16585 ft | 217 kts | 308° |
| 2026-05-09 03:37 | 35.69422 | 25.04198 | 16719 ft | 230 kts | 308° |
| 2026-05-09 03:37 | 35.70461 | 25.02651 | 16918 ft | 239 kts | 308° |
| 2026-05-09 03:37 | 35.71531 | 25.01036 | 17172 ft | 248 kts | 308° |
| 2026-05-09 03:38 | 35.72932 | 24.99746 | 17420 ft | 262 kts | 333° |
| 2026-05-09 03:38 | 35.74715 | 24.99097 | 17723 ft | 269 kts | 340° |
| 2026-05-09 03:38 | 35.76454 | 24.98507 | 18408 ft | 257 kts | 338° |
| 2026-05-09 03:38 | 35.78140 | 24.97850 | 18872 ft | 255 kts | 336° |
| 2026-05-09 03:39 | 35.79814 | 24.97108 | 19258 ft | 255 kts | 334° |
| 2026-05-09 03:39 | 35.81485 | 24.96338 | 19615 ft | 257 kts | 334° |
| 2026-05-09 03:39 | 35.83161 | 24.95560 | 19975 ft | 259 kts | 334° |
| 2026-05-09 03:39 | 35.84860 | 24.94765 | 20291 ft | 262 kts | 334° |
| 2026-05-09 03:40 | 35.86563 | 24.93966 | 20661 ft | 262 kts | 334° |
| 2026-05-09 03:40 | 35.88273 | 24.93160 | 21001 ft | 264 kts | 334° |
| 2026-05-09 03:40 | 35.89993 | 24.92349 | 21306 ft | 266 kts | 333° |
| 2026-05-09 03:40 | 35.91722 | 24.91532 | 21655 ft | 266 kts | 334° |
| 2026-05-09 03:41 | 35.93464 | 24.90709 | 21975 ft | 267 kts | 334° |
| 2026-05-09 03:41 | 35.95191 | 24.89894 | 22261 ft | 269 kts | 333° |
| 2026-05-09 03:41 | 35.96960 | 24.89057 | 22563 ft | 270 kts | 334° |
| 2026-05-09 03:41 | 35.98722 | 24.88224 | 22821 ft | 273 kts | 333° |
| 2026-05-09 03:42 | 36.00504 | 24.87381 | 23106 ft | 274 kts | 334° |
| 2026-05-09 03:42 | 36.02267 | 24.86548 | 23424 ft | 273 kts | 334° |
| 2026-05-09 03:42 | 36.04052 | 24.85704 | 23654 ft | 276 kts | 333° |
| 2026-05-09 03:42 | 36.05850 | 24.84859 | 23908 ft | 277 kts | 333° |
| 2026-05-09 03:43 | 36.07472 | 24.83820 | 24654 ft | 255 kts | 322° |
| 2026-05-09 03:43 | 36.08888 | 24.82475 | 24872 ft | 256 kts | 315° |
| 2026-05-09 03:43 | 36.10173 | 24.80960 | 25226 ft | 254 kts | 311° |
| 2026-05-09 03:43 | 36.11453 | 24.79418 | 25445 ft | 257 kts | 313° |
| 2026-05-09 03:44 | 36.12764 | 24.77928 | 25726 ft | 259 kts | 314° |
| 2026-05-09 03:44 | 36.14140 | 24.76470 | 25978 ft | 261 kts | 316° |
| 2026-05-09 03:44 | 36.15557 | 24.75043 | 26260 ft | 262 kts | 317° |
| 2026-05-09 03:44 | 36.16973 | 24.73652 | 26500 ft | 263 kts | 317° |
| 2026-05-09 03:45 | 36.18417 | 24.72243 | 26717 ft | 265 kts | 317° |
| 2026-05-09 03:45 | 36.19857 | 24.70831 | 26979 ft | 266 kts | 316° |
| 2026-05-09 03:45 | 36.21315 | 24.69393 | 27255 ft | 265 kts | 316° |
| 2026-05-09 03:45 | 36.22760 | 24.67960 | 27444 ft | 268 kts | 316° |
| 2026-05-09 03:46 | 36.24214 | 24.66512 | 27646 ft | 269 kts | 316° |
| 2026-05-09 03:46 | 36.25672 | 24.65059 | 27944 ft | 268 kts | 316° |
| 2026-05-09 03:46 | 36.27117 | 24.63618 | 28102 ft | 271 kts | 316° |
| 2026-05-09 03:46 | 36.28583 | 24.62155 | 28369 ft | 271 kts | 316° |
| 2026-05-09 03:47 | 36.30051 | 24.60691 | 28568 ft | 273 kts | 316° |
| 2026-05-09 03:47 | 36.31533 | 24.59213 | 28847 ft | 273 kts | 316° |
| 2026-05-09 03:47 | 36.33017 | 24.57732 | 29072 ft | 274 kts | 316° |
| 2026-05-09 03:47 | 36.34506 | 24.56247 | 29303 ft | 275 kts | 316° |
| 2026-05-09 03:48 | 36.35997 | 24.54756 | 29501 ft | 277 kts | 315° |
| 2026-05-09 03:48 | 36.37497 | 24.53258 | 29744 ft | 277 kts | 315° |
| 2026-05-09 03:48 | 36.39007 | 24.51747 | 29935 ft | 279 kts | 316° |
| 2026-05-09 03:48 | 36.40526 | 24.50226 | 30023 ft | 284 kts | 315° |
| 2026-05-09 03:49 | 36.42061 | 24.48685 | 30032 ft | 290 kts | 316° |
| 2026-05-09 03:49 | 36.43657 | 24.47082 | 30026 ft | 297 kts | 316° |
| 2026-05-09 03:49 | 36.46925 | 24.43806 | 30035 ft | 307 kts | 316° |
| 2026-05-09 03:50 | 36.50272 | 24.40450 | 30033 ft | 315 kts | 316° |
| 2026-05-09 03:50 | 36.53715 | 24.36994 | 30031 ft | 320 kts | 316° |
| 2026-05-09 03:51 | 36.57218 | 24.33472 | 30036 ft | 325 kts | 316° |
| 2026-05-09 03:51 | 36.60751 | 24.29915 | 30028 ft | 328 kts | 316° |
| 2026-05-09 03:52 | 36.64309 | 24.26328 | 30030 ft | 331 kts | 316° |
| 2026-05-09 03:52 | 36.67880 | 24.22723 | 30034 ft | 333 kts | 316° |
| 2026-05-09 03:53 | 36.71477 | 24.19087 | 30022 ft | 334 kts | 316° |
| 2026-05-09 03:53 | 36.75095 | 24.15427 | 30036 ft | 335 kts | 316° |
| 2026-05-09 03:54 | 36.78701 | 24.11772 | 30023 ft | 335 kts | 316° |
| 2026-05-09 03:54 | 36.82296 | 24.08124 | 30031 ft | 335 kts | 316° |
| 2026-05-09 03:55 | 36.85916 | 24.04446 | 30033 ft | 336 kts | 316° |
| 2026-05-09 03:55 | 36.89550 | 24.00750 | 30030 ft | 335 kts | 315° |
| 2026-05-09 03:56 | 36.93154 | 23.97079 | 30032 ft | 335 kts | 316° |
| 2026-05-09 03:56 | 36.96757 | 23.93411 | 30034 ft | 334 kts | 316° |
| 2026-05-09 03:57 | 37.00357 | 23.89741 | 30028 ft | 334 kts | 316° |
| 2026-05-09 03:57 | 37.03938 | 23.86084 | 30037 ft | 334 kts | 316° |
| 2026-05-09 03:58 | 37.07543 | 23.82398 | 30030 ft | 334 kts | 316° |
| 2026-05-09 03:58 | 37.11144 | 23.78713 | 30022 ft | 334 kts | 316° |
| 2026-05-09 03:59 | 37.14765 | 23.75000 | 30027 ft | 334 kts | 316° |
| 2026-05-09 03:59 | 37.18347 | 23.71324 | 30029 ft | 335 kts | 315° |
| 2026-05-09 04:00 | 37.21965 | 23.67606 | 30025 ft | 335 kts | 316° |
| 2026-05-09 04:00 | 37.25559 | 23.63909 | 30023 ft | 335 kts | 315° |
| 2026-05-09 04:01 | 37.29158 | 23.60200 | 30031 ft | 335 kts | 315° |
| 2026-05-09 04:01 | 37.32750 | 23.56496 | 30016 ft | 335 kts | 315° |
| 2026-05-09 04:02 | 37.36333 | 23.52795 | 30014 ft | 334 kts | 315° |
| 2026-05-09 04:02 | 37.39925 | 23.49081 | 30017 ft | 334 kts | 315° |
| 2026-05-09 04:03 | 37.43519 | 23.45359 | 30035 ft | 334 kts | 315° |
| 2026-05-09 04:03 | 37.47087 | 23.41658 | 30028 ft | 334 kts | 315° |
| 2026-05-09 04:04 | 37.50673 | 23.37937 | 30034 ft | 334 kts | 315° |
| 2026-05-09 04:04 | 37.54262 | 23.34205 | 30042 ft | 334 kts | 315° |
| 2026-05-09 04:05 | 37.57859 | 23.30462 | 30031 ft | 334 kts | 315° |
| 2026-05-09 04:05 | 37.61424 | 23.26746 | 30039 ft | 335 kts | 314° |
| 2026-05-09 04:06 | 37.65015 | 23.22998 | 30025 ft | 335 kts | 315° |
| 2026-05-09 04:06 | 37.68609 | 23.19244 | 30044 ft | 334 kts | 315° |
| 2026-05-09 04:07 | 37.72189 | 23.15498 | 30052 ft | 335 kts | 314° |
| 2026-05-09 04:07 | 37.75761 | 23.11756 | 30053 ft | 335 kts | 315° |
| 2026-05-09 04:08 | 37.79350 | 23.07993 | 30072 ft | 334 kts | 315° |
| 2026-05-09 04:08 | 37.82892 | 23.04272 | 30087 ft | 333 kts | 314° |
| 2026-05-09 04:09 | 37.86463 | 23.00514 | 30103 ft | 333 kts | 314° |
| 2026-05-09 04:09 | 37.90007 | 22.96782 | 30089 ft | 333 kts | 315° |
| 2026-05-09 04:10 | 37.93564 | 22.93024 | 30087 ft | 334 kts | 314° |
| 2026-05-09 04:10 | 37.97016 | 22.89070 | 30071 ft | 332 kts | 312° |
| 2026-05-09 04:11 | 38.00395 | 22.85071 | 30049 ft | 332 kts | 312° |
| 2026-05-09 04:11 | 38.03784 | 22.81096 | 30028 ft | 332 kts | 311° |
| 2026-05-09 04:12 | 38.07192 | 22.77130 | 30047 ft | 332 kts | 311° |
| 2026-05-09 04:12 | 38.10594 | 22.73166 | 30022 ft | 332 kts | 312° |
| 2026-05-09 04:13 | 38.14023 | 22.69169 | 30012 ft | 332 kts | 312° |
| 2026-05-09 04:13 | 38.17424 | 22.65221 | 30013 ft | 332 kts | 312° |
| 2026-05-09 04:14 | 38.20820 | 22.61273 | 30019 ft | 332 kts | 313° |
| 2026-05-09 04:14 | 38.24234 | 22.57295 | 30025 ft | 332 kts | 312° |
| 2026-05-09 04:15 | 38.27628 | 22.53335 | 30031 ft | 332 kts | 312° |
| 2026-05-09 04:15 | 38.31043 | 22.49344 | 30043 ft | 332 kts | 312° |
| 2026-05-09 04:16 | 38.34233 | 22.45612 | 30049 ft | 332 kts | 312° |
| 2026-05-09 04:16 | 38.37566 | 22.41708 | 30065 ft | 332 kts | 312° |
| 2026-05-09 04:17 | 38.40957 | 22.37729 | 30053 ft | 333 kts | 312° |
| 2026-05-09 04:17 | 38.44353 | 22.33740 | 30077 ft | 332 kts | 311° |
| 2026-05-09 04:18 | 38.47760 | 22.29734 | 30092 ft | 333 kts | 311° |
| 2026-05-09 04:18 | 38.51163 | 22.25725 | 30089 ft | 334 kts | 311° |
| 2026-05-09 04:19 | 38.54571 | 22.21706 | 30107 ft | 333 kts | 311° |
| 2026-05-09 04:19 | 38.57989 | 22.17671 | 30084 ft | 334 kts | 311° |
| 2026-05-09 04:20 | 38.61388 | 22.13647 | 30082 ft | 336 kts | 311° |
| 2026-05-09 04:20 | 38.64826 | 22.09570 | 30061 ft | 337 kts | 311° |
| 2026-05-09 04:21 | 38.68247 | 22.05512 | 30097 ft | 336 kts | 311° |
| 2026-05-09 04:22 | 38.73411 | 21.99373 | 30089 ft | 337 kts | 311° |
| 2026-05-09 04:22 | 38.76853 | 21.95272 | 30077 ft | 339 kts | 311° |
| 2026-05-09 04:23 | 38.80293 | 21.91171 | 30085 ft | 338 kts | 311° |
| 2026-05-09 04:23 | 38.83743 | 21.87056 | 30073 ft | 338 kts | 311° |
| 2026-05-09 04:24 | 38.87158 | 21.82975 | 30101 ft | 337 kts | 311° |
| 2026-05-09 04:24 | 38.90600 | 21.78852 | 30111 ft | 338 kts | 311° |
| 2026-05-09 04:25 | 38.94037 | 21.74727 | 30083 ft | 340 kts | 312° |
| 2026-05-09 04:25 | 38.97499 | 21.70570 | 30076 ft | 341 kts | 312° |
| 2026-05-09 04:26 | 39.00962 | 21.66407 | 30076 ft | 341 kts | 312° |
| 2026-05-09 04:26 | 39.04392 | 21.62277 | 30068 ft | 340 kts | 312° |
| 2026-05-09 04:27 | 39.07845 | 21.58113 | 30064 ft | 340 kts | 312° |
| 2026-05-09 04:27 | 39.11315 | 21.53924 | 30065 ft | 340 kts | 311° |
| 2026-05-09 04:28 | 39.14743 | 21.49777 | 30062 ft | 339 kts | 311° |
| 2026-05-09 04:28 | 39.18182 | 21.45612 | 30077 ft | 339 kts | 312° |
| 2026-05-09 04:29 | 39.21619 | 21.41442 | 30078 ft | 338 kts | 311° |
| 2026-05-09 04:29 | 39.25025 | 21.37308 | 30092 ft | 338 kts | 312° |
| 2026-05-09 04:30 | 39.28454 | 21.33137 | 30092 ft | 338 kts | 311° |
| 2026-05-09 04:30 | 39.31871 | 21.28974 | 30103 ft | 339 kts | 311° |
| 2026-05-09 04:31 | 39.35315 | 21.24772 | 30091 ft | 340 kts | 311° |
| 2026-05-09 04:31 | 39.38745 | 21.20584 | 30087 ft | 341 kts | 311° |
| 2026-05-09 04:32 | 39.42186 | 21.16374 | 30094 ft | 342 kts | 312° |
| 2026-05-09 04:32 | 39.45651 | 21.12131 | 30074 ft | 342 kts | 311° |
| 2026-05-09 04:33 | 39.49077 | 21.07932 | 30083 ft | 341 kts | 311° |
| 2026-05-09 04:33 | 39.52529 | 21.03692 | 30076 ft | 342 kts | 311° |
| 2026-05-09 04:34 | 39.55971 | 20.99457 | 30075 ft | 342 kts | 311° |
| 2026-05-09 04:34 | 39.59399 | 20.95236 | 30078 ft | 342 kts | 312° |
| 2026-05-09 04:35 | 39.62856 | 20.90971 | 30085 ft | 345 kts | 313° |
| 2026-05-09 04:35 | 39.66332 | 20.86676 | 30068 ft | 346 kts | 312° |
| 2026-05-09 04:36 | 39.69805 | 20.82371 | 30086 ft | 346 kts | 311° |
| 2026-05-09 04:36 | 39.71705 | 20.80429 | 30084 ft | 353 kts | 324° |
| 2026-05-09 04:36 | 39.73926 | 20.78994 | 30079 ft | 357 kts | 331° |
| 2026-05-09 04:37 | 39.78574 | 20.76676 | 30087 ft | 359 kts | 334° |
| 2026-05-09 04:37 | 39.83178 | 20.74187 | 30079 ft | 358 kts | 331° |
| 2026-05-09 04:38 | 39.87677 | 20.71470 | 30089 ft | 358 kts | 330° |
| 2026-05-09 04:38 | 39.92188 | 20.68681 | 30075 ft | 359 kts | 330° |
| 2026-05-09 04:39 | 39.96701 | 20.65914 | 30082 ft | 360 kts | 330° |
| 2026-05-09 04:39 | 40.01261 | 20.63132 | 30102 ft | 360 kts | 330° |
| 2026-05-09 04:40 | 40.05784 | 20.60371 | 30092 ft | 361 kts | 330° |
| 2026-05-09 04:40 | 40.10336 | 20.57540 | 30089 ft | 361 kts | 330° |
| 2026-05-09 04:41 | 40.14867 | 20.54612 | 30086 ft | 362 kts | 329° |
| 2026-05-09 04:41 | 40.19377 | 20.51694 | 30076 ft | 362 kts | 330° |
| 2026-05-09 04:42 | 40.23896 | 20.48783 | 30076 ft | 362 kts | 330° |
| 2026-05-09 04:42 | 40.28441 | 20.45857 | 30081 ft | 362 kts | 329° |
| 2026-05-09 04:43 | 40.32966 | 20.42939 | 30076 ft | 363 kts | 330° |
| 2026-05-09 04:43 | 40.37480 | 20.40021 | 29889 ft | 368 kts | 330° |
| 2026-05-09 04:43 | 40.39782 | 20.38529 | 29644 ft | 374 kts | 330° |
| 2026-05-09 04:44 | 40.42143 | 20.36998 | 29383 ft | 376 kts | 330° |
| 2026-05-09 04:44 | 40.44478 | 20.35487 | 29118 ft | 376 kts | 330° |
| 2026-05-09 04:44 | 40.46834 | 20.33962 | 28855 ft | 376 kts | 329° |
| 2026-05-09 04:44 | 40.49173 | 20.32445 | 28594 ft | 376 kts | 329° |
| 2026-05-09 04:45 | 40.51503 | 20.30933 | 28334 ft | 375 kts | 329° |
| 2026-05-09 04:45 | 40.53866 | 20.29398 | 28069 ft | 375 kts | 329° |
| 2026-05-09 04:45 | 40.56186 | 20.27889 | 27808 ft | 375 kts | 329° |
| 2026-05-09 04:45 | 40.58535 | 20.26360 | 27542 ft | 374 kts | 329° |
| 2026-05-09 04:46 | 40.60841 | 20.24857 | 27285 ft | 374 kts | 329° |
| 2026-05-09 04:46 | 40.63190 | 20.23325 | 27023 ft | 374 kts | 329° |
| 2026-05-09 04:46 | 40.65507 | 20.21813 | 26763 ft | 373 kts | 329° |
| 2026-05-09 04:46 | 40.67825 | 20.20301 | 26499 ft | 373 kts | 329° |
| 2026-05-09 04:47 | 40.70155 | 20.18778 | 26239 ft | 372 kts | 329° |
| 2026-05-09 04:47 | 40.72475 | 20.17259 | 25977 ft | 372 kts | 329° |
| 2026-05-09 04:47 | 40.74801 | 20.15736 | 25717 ft | 372 kts | 329° |
| 2026-05-09 04:47 | 40.77096 | 20.14233 | 25453 ft | 371 kts | 329° |
| 2026-05-09 04:48 | 40.79417 | 20.12710 | 25196 ft | 371 kts | 329° |
| 2026-05-09 04:48 | 40.81741 | 20.11186 | 24940 ft | 371 kts | 329° |
| 2026-05-09 04:48 | 40.84022 | 20.09688 | 24684 ft | 370 kts | 329° |
| 2026-05-09 04:48 | 40.86327 | 20.08184 | 24420 ft | 369 kts | 329° |
| 2026-05-09 04:49 | 40.88422 | 20.06280 | 24156 ft | 362 kts | 313° |
| 2026-05-09 04:49 | 40.90076 | 20.03784 | 23904 ft | 359 kts | 306° |
| 2026-05-09 04:49 | 40.91507 | 20.01140 | 23653 ft | 357 kts | 302° |
| 2026-05-09 04:49 | 40.92894 | 19.98493 | 23216 ft | 342 kts | 303° |
| 2026-05-09 04:50 | 40.94271 | 19.96001 | 22774 ft | 330 kts | 304° |
| 2026-05-09 04:50 | 40.95668 | 19.93640 | 22339 ft | 322 kts | 306° |
| 2026-05-09 04:50 | 40.97082 | 19.91399 | 21910 ft | 321 kts | 307° |
| 2026-05-09 04:50 | 40.98548 | 19.89129 | 21477 ft | 321 kts | 307° |
| 2026-05-09 04:51 | 40.99981 | 19.86900 | 21053 ft | 321 kts | 307° |
| 2026-05-09 04:51 | 41.01416 | 19.84657 | 20640 ft | 321 kts | 307° |
| 2026-05-09 04:51 | 41.02826 | 19.82447 | 20228 ft | 321 kts | 307° |
| 2026-05-09 04:51 | 41.04310 | 19.80117 | 19795 ft | 321 kts | 307° |
| 2026-05-09 04:52 | 41.05736 | 19.77874 | 19374 ft | 321 kts | 307° |
| 2026-05-09 04:52 | 41.07169 | 19.75620 | 18958 ft | 320 kts | 307° |
| 2026-05-09 04:52 | 41.08607 | 19.73355 | 18537 ft | 320 kts | 308° |
| 2026-05-09 04:52 | 41.10035 | 19.71105 | 18117 ft | 320 kts | 308° |
| 2026-05-09 04:53 | 41.11477 | 19.68830 | 17703 ft | 319 kts | 308° |
| 2026-05-09 04:53 | 41.12918 | 19.66556 | 17293 ft | 319 kts | 308° |
| 2026-05-09 04:53 | 41.14330 | 19.64325 | 16890 ft | 319 kts | 308° |
| 2026-05-09 04:53 | 41.15758 | 19.62067 | 16484 ft | 319 kts | 308° |
| 2026-05-09 04:54 | 41.17194 | 19.59812 | 16064 ft | 320 kts | 311° |
| 2026-05-09 04:54 | 41.19071 | 19.58277 | 15652 ft | 329 kts | 338° |
| 2026-05-09 04:54 | 41.21346 | 19.57926 | 15096 ft | 332 kts | 1° |
| 2026-05-09 04:54 | 41.23640 | 19.58232 | 14331 ft | 330 kts | 1° |
| 2026-05-09 04:55 | 41.25903 | 19.58302 | 13558 ft | 329 kts | 358° |
| 2026-05-09 04:55 | 41.28182 | 19.58179 | 12759 ft | 328 kts | 354° |
| 2026-05-09 04:55 | 41.30426 | 19.57945 | 11992 ft | 326 kts | 353° |
| 2026-05-09 04:55 | 41.32686 | 19.57663 | 11199 ft | 325 kts | 352° |
| 2026-05-09 04:56 | 41.34898 | 19.57368 | 10414 ft | 318 kts | 352° |
| 2026-05-09 04:56 | 41.37082 | 19.57073 | 9615 ft | 311 kts | 352° |
| 2026-05-09 04:56 | 41.39194 | 19.56784 | 8823 ft | 305 kts | 352° |
| 2026-05-09 04:56 | 41.41260 | 19.56503 | 8036 ft | 297 kts | 352° |
| 2026-05-09 04:57 | 41.43281 | 19.56228 | 7232 ft | 286 kts | 353° |
| 2026-05-09 04:57 | 41.45229 | 19.55962 | 6433 ft | 278 kts | 354° |
| 2026-05-09 04:57 | 41.47080 | 19.55710 | 5893 ft | 263 kts | 354° |
| 2026-05-09 04:57 | 41.48861 | 19.55468 | 5385 ft | 252 kts | 354° |
| 2026-05-09 04:58 | 41.50575 | 19.55234 | 4885 ft | 246 kts | 354° |
| 2026-05-09 04:58 | 41.52265 | 19.55004 | 4384 ft | 241 kts | 354° |
| 2026-05-09 04:58 | 41.53897 | 19.54781 | 4049 ft | 230 kts | 354° |
| 2026-05-09 04:58 | 41.55436 | 19.54572 | 3986 ft | 212 kts | 354° |
| 2026-05-09 04:59 | 41.56871 | 19.54377 | 3988 ft | 204 kts | 354° |
| 2026-05-09 04:59 | 41.58254 | 19.54189 | 3988 ft | 199 kts | 354° |
| 2026-05-09 04:59 | 41.59625 | 19.54002 | 3988 ft | 194 kts | 354° |
| 2026-05-09 04:59 | 41.60970 | 19.53818 | 3987 ft | 193 kts | 354° |
| 2026-05-09 05:00 | 41.62308 | 19.53711 | 3985 ft | 194 kts | 6° |
| 2026-05-09 05:00 | 41.63619 | 19.54186 | 3980 ft | 196 kts | 30° |
| 2026-05-09 05:00 | 41.64435 | 19.55587 | 3992 ft | 200 kts | 72° |
| 2026-05-09 05:00 | 41.64487 | 19.57502 | 4019 ft | 212 kts | 93° |
| 2026-05-09 05:01 | 41.64394 | 19.59501 | 4004 ft | 222 kts | 91° |
| 2026-05-09 05:01 | 41.64405 | 19.61601 | 4000 ft | 228 kts | 87° |
| 2026-05-09 05:01 | 41.64498 | 19.63759 | 3997 ft | 234 kts | 84° |
| 2026-05-09 05:01 | 41.64642 | 19.65933 | 3993 ft | 239 kts | 83° |
| 2026-05-09 05:02 | 41.64798 | 19.68123 | 3991 ft | 235 kts | 83° |
| 2026-05-09 05:02 | 41.64794 | 19.70296 | 3977 ft | 234 kts | 98° |
| 2026-05-09 05:02 | 41.64098 | 19.72252 | 4003 ft | 232 kts | 123° |
| 2026-05-09 05:02 | 41.62836 | 19.73538 | 3999 ft | 232 kts | 159° |
| 2026-05-09 05:03 | 41.61234 | 19.73633 | 4002 ft | 233 kts | 195° |
| 2026-05-09 05:03 | 41.59826 | 19.72602 | 4016 ft | 230 kts | 217° |
| 2026-05-09 05:03 | 41.58542 | 19.71351 | 4002 ft | 230 kts | 214° |
| 2026-05-09 05:03 | 41.57111 | 19.70376 | 4004 ft | 227 kts | 203° |
| 2026-05-09 05:04 | 41.55580 | 19.70058 | 3990 ft | 223 kts | 178° |
| 2026-05-09 05:04 | 41.54057 | 19.70291 | 4010 ft | 218 kts | 172° |
| 2026-05-09 05:04 | 41.52559 | 19.70544 | 3951 ft | 215 kts | 174° |
| 2026-05-09 05:04 | 41.51041 | 19.70767 | 3336 ft | 227 kts | 174° |
| 2026-05-09 05:05 | 41.49610 | 19.70967 | 2797 ft | 195 kts | 174° |
| 2026-05-09 05:05 | 41.48383 | 19.71119 | 2348 ft | 157 kts | 175° |
| 2026-05-09 05:05 | 41.47449 | 19.71179 | 1943 ft | 124 kts | 177° |
| 2026-05-09 05:05 | 41.46620 | 19.71264 | 1427 ft | 116 kts | 174° |
| 2026-05-09 05:06 | 41.45847 | 19.71381 | 995 ft | 110 kts | 175° |
| 2026-05-09 05:06 | 41.45068 | 19.71517 | 668 ft | 115 kts | 176° |
| 2026-05-09 05:06 | 41.44271 | 19.71650 | 464 ft | 112 kts | 174° |
| 2026-05-09 05:06 | 41.43518 | 19.71776 | 316 ft | 107 kts | 175° |
| 2026-05-09 05:07 | 41.42783 | 19.71883 | 163 ft | 104 kts | 176° |
| 2026-05-09 05:07 | 41.42103 | 19.71973 | 114 ft | 91 kts | 177° |
| 2026-05-09 05:07 | 41.41548 | 19.72044 | 117 ft | 68 kts | 175° |
| 2026-05-09 05:07 | 41.41151 | 19.72098 | 120 ft | 50 kts | 174° |
| 2026-05-09 05:08 | 41.40856 | 19.72138 | 122 ft | 22 kts | 174° |
| 2026-05-09 05:08 | 41.40737 | 19.72150 | 123 ft | 11 kts | 188° |
| 2026-05-09 05:08 | 41.40692 | 19.72087 | 123 ft | 9 kts | 260° |
| 2026-05-09 05:08 | 41.40675 | 19.71990 | 123 ft | 13 kts | 256° |
| 2026-05-09 05:09 | 41.40647 | 19.71840 | 123 ft | 18 kts | 257° |
| 2026-05-09 05:09 | 41.40691 | 19.71749 | 122 ft | 12 kts | 358° |
| 2026-05-09 05:09 | 41.40799 | 19.71733 | 122 ft | 18 kts | 354° |
| 2026-05-09 05:09 | 41.40953 | 19.71711 | 121 ft | 25 kts | 354° |
| 2026-05-09 05:10 | 41.41092 | 19.71694 | 120 ft | 13 kts | 355° |
| 2026-05-09 05:10 | 41.41189 | 19.71682 | 119 ft | 15 kts | 351° |
| 2026-05-09 05:10 | 41.41310 | 19.71666 | 118 ft | 19 kts | 353° |
| 2026-05-09 05:10 | 41.41458 | 19.71647 | 117 ft | 23 kts | 354° |
| 2026-05-09 05:11 | 41.41605 | 19.71626 | 115 ft | 18 kts | 356° |
| 2026-05-09 05:11 | 41.41736 | 19.71610 | 114 ft | 18 kts | 354° |
| 2026-05-09 05:11 | 41.41859 | 19.71593 | 113 ft | 17 kts | 352° |
| 2026-05-09 05:11 | 41.41977 | 19.71577 | 112 ft | 16 kts | 355° |
| 2026-05-09 05:12 | 41.42092 | 19.71562 | 110 ft | 16 kts | 354° |
| 2026-05-09 05:12 | 41.42205 | 19.71549 | 110 ft | 15 kts | 355° |
| 2026-05-09 05:12 | 41.42312 | 19.71537 | 109 ft | 15 kts | 356° |
| 2026-05-09 05:12 | 41.42414 | 19.71523 | 108 ft | 14 kts | 354° |
| 2026-05-09 05:13 | 41.42512 | 19.71509 | 108 ft | 13 kts | 356° |
| 2026-05-09 05:13 | 41.42604 | 19.71499 | 108 ft | 13 kts | 354° |
| 2026-05-09 05:13 | 41.42664 | 19.71489 | 108 ft | 1 kts | 350° |
| 2026-05-09 05:13 | 41.42677 | 19.71502 | 108 ft | 3 kts | 71° |
| 2026-05-09 05:14 | 41.42669 | 19.71520 | 108 ft | 1 kts | 143° |
| 2026-05-09 05:14 | 41.42667 | 19.71521 | 108 ft | 0 kts | 144° |